createdAt,value
2022-07-27T00:01:13.049Z,99678.41
2022-07-27T00:03:41.210Z,99681.13
2022-07-27T00:06:08.778Z,99688.16
2022-07-27T00:08:36.391Z,99689.81
2022-07-27T00:11:04.923Z,99688.13
2022-07-27T00:13:32.362Z,99690.78
2022-07-27T00:15:59.881Z,99689.41
2022-07-27T00:18:27.679Z,99692.50
2022-07-27T00:20:55.144Z,99691.69
2022-07-27T00:23:22.541Z,99687.06
2022-07-27T00:25:50.289Z,99693.84
2022-07-27T00:28:17.706Z,99692.53
2022-07-27T00:30:45.224Z,99687.97
2022-07-27T00:33:16.988Z,99693.16
2022-07-27T00:35:45.094Z,99691.94
2022-07-27T00:38:12.770Z,99697.13
2022-07-27T00:40:40.362Z,99694.56
2022-07-27T00:43:07.796Z,99689.34
2022-07-27T00:45:35.570Z,99695.87
2022-07-27T00:48:02.981Z,99691.25
2022-07-27T00:50:30.496Z,99687.84
2022-07-27T00:52:58.398Z,99691.47
2022-07-27T00:55:27.572Z,99687.75
2022-07-27T00:57:59.409Z,99695.78
2022-07-27T01:00:28.200Z,99679.13
2022-07-27T01:02:57.453Z,99683.09
2022-07-27T01:05:36.148Z,99682.69
2022-07-27T01:08:06.976Z,99692.66
2022-07-27T01:10:34.808Z,99701.38
2022-07-27T01:13:02.709Z,99694.25
2022-07-27T01:15:30.981Z,99692.84
2022-07-27T01:18:04.544Z,99691.34
2022-07-27T01:20:33.780Z,99694.31
2022-07-27T01:23:01.234Z,99699.09
2022-07-27T01:25:28.653Z,99701.75
2022-07-27T01:27:56.370Z,99703.66
2022-07-27T01:30:32.621Z,99694.63
2022-07-27T01:33:04.608Z,99697.53
2022-07-27T01:35:32.790Z,99695.38
2022-07-27T01:38:00.714Z,99684.03
2022-07-27T01:40:28.408Z,99687.66
2022-07-27T01:42:55.833Z,99694.75
2022-07-27T01:45:23.575Z,99697.88
2022-07-27T01:47:51.023Z,99696.13
2022-07-27T01:50:18.489Z,99705.22
2022-07-27T01:52:46.166Z,99711.22
2022-07-27T01:55:13.652Z,99691.69
2022-07-27T01:57:41.069Z,99691.16
2022-07-27T02:00:11.380Z,99687.91
2022-07-27T02:02:40.133Z,99694.59
2022-07-27T02:05:11.950Z,99691.78
2022-07-27T02:07:42.460Z,99688.66
2022-07-27T02:10:10.545Z,99689.94
2022-07-27T02:12:38.399Z,99685.28
2022-07-27T02:15:22.004Z,99688.66
2022-07-27T02:17:53.207Z,99696.00
2022-07-27T02:20:24.726Z,99685.78
2022-07-27T02:22:52.335Z,99685.59
2022-07-27T02:25:20.268Z,99684.31
2022-07-27T02:27:48.120Z,99687.78
2022-07-27T02:30:17.861Z,99689.34
2022-07-27T02:32:45.773Z,99696.69
2022-07-27T02:35:19.875Z,99697.25
2022-07-27T02:37:49.017Z,99698.63
2022-07-27T02:40:18.690Z,99700.03
2022-07-27T02:42:47.071Z,99694.38
2022-07-27T02:45:15.624Z,99699.03
2022-07-27T02:47:44.075Z,99696.72
2022-07-27T02:50:11.972Z,99690.91
2022-07-27T02:52:39.982Z,99694.31
2022-07-27T02:55:08.094Z,99693.91
2022-07-27T02:57:37.900Z,99681.91
2022-07-27T03:00:07.761Z,99689.44
2022-07-27T03:02:35.598Z,99696.84
2022-07-27T03:05:07.798Z,99704.00
2022-07-27T03:07:35.678Z,99700.19
2022-07-27T03:10:03.213Z,99700.81
2022-07-27T03:12:31.373Z,99699.69
2022-07-27T03:14:59.093Z,99691.97
2022-07-27T03:17:26.596Z,99701.97
2022-07-27T03:19:54.063Z,99692.94
2022-07-27T03:22:21.745Z,99692.16
2022-07-27T03:24:49.183Z,99691.25
2022-07-27T03:27:16.951Z,99684.38
2022-07-27T03:29:44.635Z,99685.84
2022-07-27T03:32:12.064Z,99697.00
2022-07-27T03:34:39.535Z,99706.13
2022-07-27T03:37:07.216Z,99703.75
2022-07-27T03:39:34.907Z,99701.91
2022-07-27T03:42:02.425Z,99699.00
2022-07-27T03:44:30.110Z,99709.75
2022-07-27T03:46:57.519Z,99717.09
2022-07-27T03:49:25.028Z,99711.09
2022-07-27T03:51:52.911Z,99716.19
2022-07-27T03:54:20.418Z,99710.00
2022-07-27T03:56:47.845Z,99718.16
2022-07-27T03:59:16.249Z,99710.75
2022-07-27T04:01:43.792Z,99714.62
2022-07-27T04:04:11.543Z,99711.75
2022-07-27T04:06:39.001Z,99707.38
2022-07-27T04:09:08.191Z,99712.37
2022-07-27T04:11:37.781Z,99709.41
2022-07-27T04:14:12.824Z,99707.88
2022-07-27T04:16:41.450Z,99707.38
2022-07-27T04:19:09.427Z,99718.59
2022-07-27T04:21:37.532Z,99711.50
2022-07-27T04:24:05.665Z,99711.75
2022-07-27T04:26:33.193Z,99723.38
2022-07-27T04:29:00.664Z,99721.53
2022-07-27T04:31:28.331Z,99721.97
2022-07-27T04:33:55.815Z,99725.25
2022-07-27T04:36:23.219Z,99731.88
2022-07-27T04:38:50.903Z,99719.37
2022-07-27T04:41:18.359Z,99720.78
2022-07-27T04:43:45.796Z,99717.06
2022-07-27T04:46:16.555Z,99716.12
2022-07-27T04:48:49.009Z,99713.81
2022-07-27T04:51:18.076Z,99707.28
2022-07-27T04:53:52.419Z,99714.81
2022-07-27T04:56:26.927Z,99721.47
2022-07-27T04:58:56.129Z,99720.50
2022-07-27T05:01:23.788Z,99727.81
2022-07-27T05:03:52.210Z,99733.50
2022-07-27T05:06:19.835Z,99727.28
2022-07-27T05:08:47.217Z,99738.38
2022-07-27T05:11:14.926Z,99729.81
2022-07-27T05:13:42.444Z,99740.09
2022-07-27T05:16:10.825Z,99734.03
2022-07-27T05:18:38.819Z,99738.75
2022-07-27T05:21:06.789Z,99739.00
2022-07-27T05:23:34.650Z,99739.91
2022-07-27T05:26:02.440Z,99745.22
2022-07-27T05:28:29.848Z,99746.06
2022-07-27T05:30:57.272Z,99746.09
2022-07-27T05:33:25.610Z,99744.31
2022-07-27T05:35:53.053Z,99741.72
2022-07-27T05:38:21.241Z,99748.59
2022-07-27T05:40:49.053Z,99744.34
2022-07-27T05:43:16.446Z,99743.41
2022-07-27T05:45:43.978Z,99753.03
2022-07-27T05:48:11.729Z,99747.81
2022-07-27T05:50:39.291Z,99751.41
2022-07-27T05:53:06.745Z,99755.75
2022-07-27T05:55:34.466Z,99753.09
2022-07-27T05:58:02.023Z,99751.28
2022-07-27T06:00:29.510Z,99764.31
2022-07-27T06:02:57.397Z,99761.47
2022-07-27T06:05:24.921Z,99765.37
2022-07-27T06:08:08.939Z,99763.59
2022-07-27T06:10:37.690Z,99772.34
2022-07-27T06:13:07.233Z,99780.31
2022-07-27T06:15:35.282Z,99775.91
2022-07-27T06:18:03.937Z,99777.47
2022-07-27T06:20:31.787Z,99780.25
2022-07-27T06:23:00.852Z,99779.09
2022-07-27T06:25:34.573Z,99781.88
2022-07-27T06:28:04.503Z,99780.94
2022-07-27T06:30:32.374Z,99776.00
2022-07-27T06:33:00.525Z,99772.50
2022-07-27T06:35:27.998Z,99768.41
2022-07-27T06:37:55.663Z,99770.31
2022-07-27T06:40:26.262Z,99770.66
2022-07-27T06:42:56.373Z,99777.66
2022-07-27T06:45:24.704Z,99774.03
2022-07-27T06:47:52.311Z,99769.22
2022-07-27T06:50:20.799Z,99756.66
2022-07-27T06:52:49.687Z,99752.66
2022-07-27T06:55:17.794Z,99755.81
2022-07-27T06:57:46.559Z,99751.31
2022-07-27T07:00:14.837Z,99760.97
2022-07-27T07:03:08.488Z,99750.37
2022-07-27T07:05:45.207Z,99754.28
2022-07-27T07:08:14.557Z,99753.22
2022-07-27T07:10:44.652Z,99749.72
2022-07-27T07:13:12.142Z,99750.13
2022-07-27T07:15:40.817Z,99748.47
2022-07-27T07:18:09.364Z,99752.84
2022-07-27T07:20:37.601Z,99747.97
2022-07-27T07:23:05.658Z,99740.50
2022-07-27T07:25:33.906Z,99741.72
2022-07-27T07:28:02.431Z,99736.25
2022-07-27T07:30:30.653Z,99729.53
2022-07-27T07:32:58.550Z,99735.81
2022-07-27T07:35:27.237Z,99731.12
2022-07-27T07:37:54.750Z,99727.19
2022-07-27T07:40:42.711Z,99713.03
2022-07-27T07:43:13.290Z,99719.16
2022-07-27T07:45:51.114Z,99715.69
2022-07-27T07:48:21.161Z,99712.31
2022-07-27T07:50:52.119Z,99715.38
2022-07-27T07:53:24.038Z,99710.59
2022-07-27T07:55:53.321Z,99709.31
2022-07-27T07:58:20.851Z,99701.56
2022-07-27T08:00:48.519Z,99703.03
2022-07-27T08:03:16.481Z,99708.06
2022-07-27T08:05:43.997Z,99697.09
2022-07-27T08:08:11.543Z,99699.19
2022-07-27T08:10:39.272Z,99696.31
2022-07-27T08:13:06.681Z,99691.25
2022-07-27T08:15:35.694Z,99686.97
2022-07-27T08:18:05.744Z,99696.59
2022-07-27T08:20:33.925Z,99693.91
2022-07-27T08:23:01.692Z,99687.06
2022-07-27T08:25:29.743Z,99686.03
2022-07-27T08:27:57.624Z,99692.44
2022-07-27T08:30:25.461Z,99692.44
2022-07-27T08:32:59.898Z,99675.63
2022-07-27T08:35:28.820Z,99673.78
2022-07-27T08:37:57.202Z,99680.50
2022-07-27T08:40:43.699Z,99683.16
2022-07-27T08:43:18.909Z,99677.38
2022-07-27T08:45:54.272Z,99679.75
2022-07-27T08:48:24.913Z,99676.00
2022-07-27T08:50:53.558Z,99687.81
2022-07-27T08:53:22.169Z,99679.59
2022-07-27T08:55:50.073Z,99672.38
2022-07-27T08:58:17.513Z,99676.38
2022-07-27T09:00:48.417Z,99676.94
2022-07-27T09:03:20.165Z,99667.88
2022-07-27T09:05:50.768Z,99668.00
2022-07-27T09:08:30.461Z,99679.28
2022-07-27T09:10:59.878Z,99682.53
2022-07-27T09:13:34.145Z,99675.59
2022-07-27T09:16:23.507Z,99666.31
2022-07-27T09:19:02.870Z,99668.19
2022-07-27T09:21:30.437Z,99676.72
2022-07-27T09:24:18.123Z,99675.75
2022-07-27T09:27:02.859Z,99672.59
2022-07-27T09:29:34.803Z,99668.31
2022-07-27T09:32:14.172Z,99665.63
2022-07-27T09:34:42.060Z,99670.22
2022-07-27T09:37:12.456Z,99673.13
2022-07-27T09:39:40.095Z,99659.91
2022-07-27T09:43:02.760Z,99667.50
2022-07-27T09:45:04.399Z,99667.47
2022-07-27T09:47:33.228Z,99665.22
2022-07-27T09:50:21.146Z,99658.87
2022-07-27T09:52:48.934Z,99659.75
2022-07-27T09:55:20.385Z,99660.44
2022-07-27T09:58:06.042Z,99664.00
2022-07-27T10:00:34.108Z,99657.37
2022-07-27T10:03:01.950Z,99665.69
2022-07-27T10:05:29.453Z,99656.97
2022-07-27T10:07:56.925Z,99655.78
2022-07-27T10:10:24.956Z,99665.81
2022-07-27T10:12:55.610Z,99651.66
2022-07-27T10:15:25.278Z,99647.72
2022-07-27T10:18:01.668Z,99651.56
2022-07-27T10:20:30.011Z,99654.12
2022-07-27T10:22:58.961Z,99647.41
2022-07-27T10:25:32.434Z,99649.13
2022-07-27T10:28:13.262Z,99643.06
2022-07-27T10:30:40.893Z,99644.88
2022-07-27T10:33:42.943Z,99625.91
2022-07-27T10:36:19.625Z,99638.47
2022-07-27T10:39:07.172Z,99639.59
2022-07-27T10:41:43.878Z,99638.13
2022-07-27T10:44:23.853Z,99636.13
2022-07-27T10:46:54.731Z,99628.59
2022-07-27T10:49:26.357Z,99628.13
2022-07-27T10:51:55.263Z,99625.81
2022-07-27T10:54:30.797Z,99629.03
2022-07-27T10:56:59.879Z,99617.53
2022-07-27T11:02:42.627Z,99626.41
2022-07-27T11:05:53.703Z,99616.34
2022-07-27T11:10:48.379Z,99611.75
2022-07-27T11:13:20.315Z,99610.63
2022-07-27T11:16:04.622Z,99621.50
2022-07-27T11:18:45.123Z,99613.50
2022-07-27T11:21:26.786Z,99617.53
2022-07-27T11:24:00.159Z,99601.56
2022-07-27T11:26:29.846Z,99597.75
2022-07-27T11:28:57.318Z,99594.09
2022-07-27T11:31:52.691Z,99599.41
2022-07-27T11:34:14.374Z,99597.41
2022-07-27T11:36:50.407Z,99597.91
2022-07-27T11:39:54.459Z,99605.00
2022-07-27T11:42:17.773Z,99604.81
2022-07-27T11:44:49.329Z,99603.41
2022-07-27T11:47:19.868Z,99600.38
2022-07-27T11:49:47.387Z,99601.94
2022-07-27T11:52:17.665Z,99601.62
2022-07-27T11:54:51.049Z,99607.91
2022-07-27T11:57:20.552Z,99604.81
2022-07-27T11:59:48.585Z,99601.56
2022-07-27T12:02:18.400Z,99601.41
2022-07-27T12:04:50.924Z,99599.69
2022-07-27T12:07:36.982Z,99596.87
2022-07-27T12:10:06.957Z,99585.00
2022-07-27T12:12:36.115Z,99577.44
2022-07-27T12:18:06.126Z,99581.66
2022-07-27T12:20:35.004Z,99577.16
2022-07-27T12:23:07.418Z,99569.19
2022-07-27T12:25:36.417Z,99571.72
2022-07-27T12:28:06.800Z,99567.47
2022-07-27T12:30:48.369Z,99567.59
2022-07-27T12:33:35.580Z,99561.94
2022-07-27T12:36:05.328Z,99560.31
2022-07-27T12:38:41.094Z,99559.78
2022-07-27T12:41:08.538Z,99557.66
2022-07-27T12:43:36.367Z,99552.97
2022-07-27T12:46:14.113Z,99550.41
2022-07-27T12:48:43.015Z,99554.03
2022-07-27T12:51:11.207Z,99542.22
2022-07-27T12:53:39.120Z,99548.84
2022-07-27T12:56:10.000Z,99546.88
2022-07-27T12:58:37.765Z,99548.25
2022-07-27T13:01:06.831Z,99545.50
2022-07-27T13:03:37.013Z,99541.09
2022-07-27T13:06:09.205Z,99541.34
2022-07-27T13:08:38.342Z,99541.06
2022-07-27T13:11:05.666Z,99533.16
2022-07-27T13:13:33.081Z,99538.31
2022-07-27T13:16:01.200Z,99532.69
2022-07-27T13:18:28.679Z,99534.09
2022-07-27T13:20:56.111Z,99532.47
2022-07-27T13:23:23.895Z,99543.22
2022-07-27T13:25:51.315Z,99524.94
2022-07-27T13:28:18.818Z,99538.03
2022-07-27T13:30:46.479Z,99532.47
2022-07-27T13:33:13.879Z,99531.53
2022-07-27T13:35:41.416Z,99537.91
2022-07-27T13:38:13.090Z,99528.47
2022-07-27T13:40:45.063Z,99533.72
2022-07-27T13:43:12.775Z,99526.97
2022-07-27T13:45:43.041Z,99515.16
2022-07-27T13:48:12.114Z,99510.84
2022-07-27T13:50:40.092Z,99503.31
2022-07-27T13:53:07.553Z,99504.31
2022-07-27T13:55:35.421Z,99498.22
2022-07-27T13:58:03.117Z,99503.38
2022-07-27T14:00:30.664Z,99495.56
2022-07-27T14:02:58.392Z,99495.12
2022-07-27T14:05:25.881Z,99502.22
2022-07-27T14:07:55.613Z,99500.13
2022-07-27T14:10:32.412Z,99497.59
2022-07-27T14:13:08.158Z,99491.84
2022-07-27T14:15:55.664Z,99497.84
2022-07-27T14:18:24.903Z,99490.19
2022-07-27T14:20:53.141Z,99488.00
2022-07-27T14:23:21.048Z,99486.41
2022-07-27T14:25:48.487Z,99487.41
2022-07-27T14:28:16.285Z,99480.22
2022-07-27T14:30:44.207Z,99473.66
2022-07-27T14:33:11.685Z,99470.41
2022-07-27T14:35:40.843Z,99476.06
2022-07-27T14:38:10.774Z,99471.72
2022-07-27T14:40:38.988Z,99468.13
2022-07-27T14:43:06.778Z,99467.16
2022-07-27T14:45:44.429Z,99463.22
2022-07-27T14:48:28.184Z,99461.69
2022-07-27T14:51:05.402Z,99460.72
2022-07-27T14:53:33.217Z,99460.97
2022-07-27T14:56:00.772Z,99463.97
2022-07-27T14:58:28.225Z,99456.56
2022-07-27T15:00:56.021Z,99458.13
2022-07-27T15:03:23.436Z,99466.63
2022-07-27T15:05:51.708Z,99466.44
2022-07-27T15:08:20.133Z,99462.50
2022-07-27T15:10:48.664Z,99461.84
2022-07-27T15:13:17.199Z,99458.75
2022-07-27T15:15:48.468Z,99454.75
2022-07-27T15:18:18.825Z,99448.94
2022-07-27T15:20:49.657Z,99458.03
2022-07-27T15:23:17.202Z,99455.50
2022-07-27T15:25:44.740Z,99462.81
2022-07-27T15:28:12.896Z,99451.81
2022-07-27T15:30:40.390Z,99452.06
2022-07-27T15:33:07.927Z,99450.53
2022-07-27T15:35:35.922Z,99449.72
2022-07-27T15:38:03.547Z,99443.91
2022-07-27T15:40:37.294Z,99449.12
2022-07-27T15:43:06.894Z,99447.84
2022-07-27T15:45:38.687Z,99449.28
2022-07-27T15:48:08.502Z,99443.34
2022-07-27T15:50:37.506Z,99447.72
2022-07-27T15:53:05.667Z,99442.53
2022-07-27T15:55:35.024Z,99434.44
2022-07-27T15:58:03.414Z,99448.25
2022-07-27T16:00:34.195Z,99447.31
2022-07-27T16:03:05.786Z,99446.69
2022-07-27T16:05:33.666Z,99445.53
2022-07-27T16:08:01.093Z,99459.50
2022-07-27T16:10:29.982Z,99450.03
2022-07-27T16:12:57.706Z,99447.78
2022-07-27T16:15:45.228Z,99458.38
2022-07-27T16:18:13.001Z,99462.31
2022-07-27T16:20:40.405Z,99452.09
2022-07-27T16:23:18.164Z,99455.44
2022-07-27T16:26:08.121Z,99460.50
2022-07-27T16:28:39.072Z,99453.88
2022-07-27T16:31:08.965Z,99464.09
2022-07-27T16:33:36.814Z,99477.84
2022-07-27T16:36:05.530Z,99473.69
2022-07-27T16:38:33.381Z,99472.19
2022-07-27T16:41:00.788Z,99479.84
2022-07-27T16:43:37.936Z,99486.38
2022-07-27T16:46:08.428Z,99480.59
2022-07-27T16:48:42.571Z,99480.50
2022-07-27T16:51:12.678Z,99483.72
2022-07-27T16:53:41.472Z,99483.81
2022-07-27T16:56:09.493Z,99476.59
2022-07-27T16:58:37.760Z,99474.56
2022-07-27T17:01:06.746Z,99477.47
2022-07-27T17:03:34.349Z,99479.09
2022-07-27T17:06:06.055Z,99482.03
2022-07-27T17:08:35.922Z,99480.94
2022-07-27T17:11:06.039Z,99485.06
2022-07-27T17:13:34.765Z,99489.09
2022-07-27T17:16:04.200Z,99493.03
2022-07-27T17:18:38.915Z,99497.56
2022-07-27T17:21:07.607Z,99507.00
2022-07-27T17:23:38.249Z,99518.94
2022-07-27T17:26:07.352Z,99516.56
2022-07-27T17:28:38.997Z,99518.72
2022-07-27T17:31:09.209Z,99520.44
2022-07-27T17:33:38.184Z,99528.63
2022-07-27T17:36:09.712Z,99523.78
2022-07-27T17:38:46.396Z,99530.00
2022-07-27T17:41:14.781Z,99537.09
2022-07-27T17:43:42.551Z,99526.97
2022-07-27T17:46:11.561Z,99527.91
2022-07-27T17:48:39.947Z,99525.66
2022-07-27T17:51:08.699Z,99535.03
2022-07-27T17:53:36.589Z,99528.50
2022-07-27T17:56:04.962Z,99534.47
2022-07-27T17:58:32.741Z,99535.34
2022-07-27T18:01:00.165Z,99537.94
2022-07-27T18:03:28.065Z,99539.72
2022-07-27T18:05:55.674Z,99545.72
2022-07-27T18:08:23.127Z,99537.47
2022-07-27T18:10:51.655Z,99542.72
2022-07-27T18:13:19.552Z,99538.72
2022-07-27T18:15:47.264Z,99539.19
2022-07-27T18:18:16.170Z,99545.47
2022-07-27T18:20:46.237Z,99543.50
2022-07-27T18:23:15.903Z,99542.72
2022-07-27T18:25:45.057Z,99554.50
2022-07-27T18:28:16.251Z,99547.88
2022-07-27T18:30:45.997Z,99556.38
2022-07-27T18:33:14.694Z,99567.22
2022-07-27T18:35:43.364Z,99567.50
2022-07-27T18:38:11.596Z,99574.84
2022-07-27T18:40:42.615Z,99576.28
2022-07-27T18:43:10.885Z,99586.31
2022-07-27T18:45:39.651Z,99590.31
2022-07-27T18:48:10.121Z,99591.47
2022-07-27T18:50:39.875Z,99588.66
2022-07-27T18:53:08.376Z,99592.97
2022-07-27T18:55:36.174Z,99598.47
2022-07-27T18:58:04.236Z,99599.66
2022-07-27T19:00:33.474Z,99600.50
2022-07-27T19:03:01.020Z,99612.44
2022-07-27T19:05:40.429Z,99621.13
2022-07-27T19:08:11.898Z,99616.12
2022-07-27T19:10:42.462Z,99619.59
2022-07-27T19:13:11.272Z,99623.84
2022-07-27T19:15:39.100Z,99626.34
2022-07-27T19:18:07.448Z,99637.03
2022-07-27T19:20:36.680Z,99644.41
2022-07-27T19:23:05.671Z,99645.03
2022-07-27T19:25:33.998Z,99656.31
2022-07-27T19:28:03.229Z,99658.63
2022-07-27T19:30:31.039Z,99659.69
2022-07-27T19:32:58.908Z,99665.28
2022-07-27T19:35:26.823Z,99665.66
2022-07-27T19:37:54.265Z,99655.44
2022-07-27T19:43:09.447Z,99670.63
2022-07-27T19:45:37.140Z,99659.53
2022-07-27T19:48:05.678Z,99662.03
2022-07-27T19:50:33.362Z,99670.34
2022-07-27T19:53:04.359Z,99679.03
2022-07-27T19:55:31.930Z,99683.53
2022-07-27T19:58:00.004Z,99685.44
2022-07-27T20:00:27.733Z,99696.16
2022-07-27T20:02:55.465Z,99712.13
2022-07-27T20:05:23.072Z,99709.59
2022-07-27T20:07:50.516Z,99709.56
2022-07-27T20:10:21.584Z,99706.28
2022-07-27T20:12:48.998Z,99711.59
2022-07-27T20:15:16.611Z,99711.63
2022-07-27T20:17:44.422Z,99707.41
2022-07-27T20:20:12.092Z,99712.69
2022-07-27T20:22:41.012Z,99714.84
2022-07-27T20:25:10.588Z,99718.56
2022-07-27T20:27:38.253Z,99709.81
2022-07-27T20:30:06.328Z,99721.25
2022-07-27T20:32:34.072Z,99721.19
2022-07-27T20:35:02.001Z,99713.03
2022-07-27T20:37:29.406Z,99710.22
2022-07-27T20:39:57.097Z,99714.38
2022-07-27T20:42:24.636Z,99711.69
2022-07-27T20:44:52.091Z,99708.34
2022-07-27T20:47:20.304Z,99713.44
2022-07-27T20:49:47.742Z,99707.09
2022-07-27T20:52:15.914Z,99701.72
2022-07-27T20:54:43.640Z,99708.31
2022-07-27T20:57:11.174Z,99702.66
2022-07-27T20:59:38.591Z,99702.00
2022-07-27T21:02:07.750Z,99696.41
2022-07-27T21:04:35.565Z,99718.25
2022-07-27T21:07:03.007Z,99709.44
2022-07-27T21:09:31.681Z,99713.25
2022-07-27T21:11:59.172Z,99706.31
2022-07-27T21:14:26.578Z,99710.63
2022-07-27T21:16:54.355Z,99710.66
2022-07-27T21:19:22.572Z,99722.66
2022-07-27T21:21:50.183Z,99726.78
2022-07-27T21:24:19.939Z,99737.94
2022-07-27T21:26:49.390Z,99739.91
2022-07-27T21:29:17.357Z,99734.44
2022-07-27T21:31:49.227Z,99733.91
2022-07-27T21:34:19.653Z,99742.41
2022-07-27T21:36:48.060Z,99757.41
2022-07-27T21:39:16.025Z,99751.47
2022-07-27T21:41:43.638Z,99751.53
2022-07-27T21:44:11.648Z,99754.59
2022-07-27T21:46:39.394Z,99765.34
2022-07-27T21:49:06.917Z,99764.59
2022-07-27T21:51:34.737Z,99774.56
2022-07-27T21:54:02.186Z,99763.66
2022-07-27T21:56:29.710Z,99762.63
2022-07-27T21:58:57.429Z,99761.75
2022-07-27T22:01:24.929Z,99759.94
2022-07-27T22:03:52.714Z,99757.22
2022-07-27T22:06:20.323Z,99758.84
2022-07-27T22:08:47.950Z,99757.44
2022-07-27T22:11:15.634Z,99762.78
2022-07-27T22:13:43.047Z,99762.72
2022-07-27T22:16:12.594Z,99773.31
2022-07-27T22:18:40.496Z,99766.84
2022-07-27T22:21:08.897Z,99767.06
2022-07-27T22:23:36.338Z,99779.59
2022-07-27T22:26:04.069Z,99779.16
2022-07-27T22:28:31.539Z,99773.41
2022-07-27T22:31:22.220Z,99784.03
2022-07-27T22:33:47.692Z,99780.69
2022-07-27T22:36:15.461Z,99785.50
2022-07-27T22:38:42.918Z,99787.34
2022-07-27T22:41:10.692Z,99779.09
2022-07-27T22:43:38.132Z,99778.09
2022-07-27T22:46:05.898Z,99773.53
2022-07-27T22:48:33.681Z,99769.12
2022-07-27T22:51:01.139Z,99764.53
2022-07-27T22:53:28.552Z,99755.88
2022-07-27T22:55:56.350Z,99757.50
2022-07-27T22:58:23.771Z,99747.88
2022-07-27T23:00:53.591Z,99754.47
2022-07-27T23:03:25.156Z,99749.56
2022-07-27T23:05:52.582Z,99765.00
2022-07-27T23:08:20.003Z,99758.06
2022-07-27T23:10:47.878Z,99760.22
2022-07-27T23:13:16.656Z,99760.22
2022-07-27T23:15:45.002Z,99761.34
2022-07-27T23:18:13.071Z,99762.44
2022-07-27T23:20:41.717Z,99767.75
2022-07-27T23:23:15.717Z,99768.09
2022-07-27T23:25:49.055Z,99768.22
2022-07-27T23:28:16.722Z,99766.13
2022-07-27T23:30:44.592Z,99756.91
2022-07-27T23:33:12.216Z,99766.41
2022-07-27T23:35:39.678Z,99766.31
2022-07-27T23:38:07.357Z,99765.47
2022-07-27T23:40:35.173Z,99763.97
2022-07-27T23:43:02.615Z,99758.34
2022-07-27T23:45:30.415Z,99762.31
2022-07-27T23:47:57.855Z,99764.09
2022-07-27T23:50:26.194Z,99758.19
2022-07-27T23:52:53.923Z,99758.47
2022-07-27T23:55:21.352Z,99763.91
2022-07-27T23:57:48.813Z,99768.59
